createdAt,value
2022-08-17T00:00:42.987Z,22.10
2022-08-17T00:07:34.664Z,22.00
2022-08-17T00:14:36.284Z,21.80
2022-08-17T00:22:31.782Z,21.80
2022-08-17T00:28:59.942Z,21.80
2022-08-17T00:36:01.051Z,21.90
2022-08-17T00:43:12.496Z,22.00
2022-08-17T00:50:16.921Z,22.10
2022-08-17T00:57:25.986Z,22.20
2022-08-17T01:04:29.181Z,22.20
2022-08-17T01:11:32.364Z,22.20
2022-08-17T01:18:33.638Z,22.20
2022-08-17T01:25:35.066Z,22.20
2022-08-17T01:32:35.849Z,22.10
2022-08-17T01:39:51.463Z,22.10
2022-08-17T01:46:51.863Z,22.00
2022-08-17T01:53:57.535Z,21.90
2022-08-17T02:01:00.777Z,21.80
2022-08-17T02:08:03.016Z,21.80
2022-08-17T02:15:07.676Z,21.70
2022-08-17T02:22:08.355Z,21.60
2022-08-17T02:29:08.854Z,21.50
2022-08-17T02:36:09.984Z,21.50
2022-08-17T02:43:10.482Z,21.30
2022-08-17T02:50:13.305Z,21.20
2022-08-17T02:57:13.346Z,21.10
2022-08-17T03:04:13.722Z,21.00
2022-08-17T03:11:13.952Z,20.90
2022-08-17T03:18:18.920Z,20.90
2022-08-17T03:25:29.414Z,20.90
2022-08-17T03:32:29.550Z,20.80
2022-08-17T03:39:29.980Z,20.80
2022-08-17T03:46:48.904Z,20.70
2022-08-17T03:54:17.179Z,20.70
2022-08-17T04:01:17.920Z,20.60
2022-08-17T04:08:18.418Z,20.60
2022-08-17T04:15:19.201Z,20.60
2022-08-17T04:22:31.938Z,20.60
2022-08-17T04:29:49.970Z,20.60
2022-08-17T04:36:55.094Z,20.60
2022-08-17T04:43:55.955Z,20.60
2022-08-17T04:50:55.986Z,20.60
2022-08-17T04:57:56.575Z,20.50
2022-08-17T05:04:57.065Z,20.50
2022-08-17T05:12:02.149Z,20.50
2022-08-17T05:19:03.221Z,20.70
2022-08-17T05:26:04.151Z,20.80
2022-08-17T05:33:13.687Z,20.90
2022-08-17T05:40:14.544Z,21.10
2022-08-17T05:47:14.715Z,21.20
2022-08-17T05:54:18.032Z,21.40
2022-08-17T06:01:28.451Z,21.50
2022-08-17T06:08:53.939Z,21.60
2022-08-17T06:16:33.247Z,21.70
2022-08-17T06:23:43.301Z,21.80
2022-08-17T06:31:00.706Z,21.80
2022-08-17T06:38:37.934Z,21.90
2022-08-17T06:45:49.148Z,21.90
2022-08-17T06:53:11.654Z,22.00
2022-08-17T07:00:16.929Z,22.10
2022-08-17T07:07:39.302Z,22.40
2022-08-17T07:14:43.761Z,22.50
2022-08-17T07:22:03.650Z,22.70
2022-08-17T07:29:05.873Z,22.80
2022-08-17T07:36:29.586Z,22.90
2022-08-17T07:43:39.659Z,23.10
2022-08-17T07:50:40.583Z,23.20
2022-08-17T07:57:40.816Z,23.20
2022-08-17T08:05:03.589Z,23.30
2022-08-17T08:12:34.633Z,23.50
2022-08-17T08:19:35.270Z,23.60
2022-08-17T08:26:47.363Z,23.60
2022-08-17T08:34:00.953Z,23.60
2022-08-17T08:41:51.958Z,23.50
2022-08-17T08:49:18.358Z,23.30
2022-08-17T08:57:21.479Z,23.30
2022-08-17T09:05:02.797Z,23.30
2022-08-17T09:12:20.959Z,23.20
2022-08-17T09:19:58.743Z,23.10
2022-08-17T09:27:02.360Z,23.20
2022-08-17T09:34:12.538Z,23.20
2022-08-17T09:41:31.251Z,23.30
2022-08-17T09:48:39.589Z,23.30
2022-08-17T09:56:01.095Z,23.30
2022-08-17T10:03:09.480Z,23.30
2022-08-17T10:10:19.513Z,23.20
2022-08-17T10:17:34.490Z,23.20
2022-08-17T10:25:22.988Z,23.00
2022-08-17T10:32:32.619Z,22.80
2022-08-17T10:39:50.497Z,22.70
2022-08-17T10:47:15.300Z,22.60
2022-08-17T10:54:46.799Z,22.70
2022-08-17T11:02:01.092Z,22.70
2022-08-17T11:09:20.087Z,22.80
2022-08-17T11:16:39.015Z,23.20
2022-08-17T11:24:10.322Z,23.60
2022-08-17T11:31:38.940Z,23.90
2022-08-17T11:39:01.386Z,23.90
2022-08-17T11:46:07.362Z,24.00
2022-08-17T11:53:27.482Z,24.10
2022-08-17T12:00:49.752Z,24.50
2022-08-17T12:08:04.132Z,24.50
2022-08-17T12:15:11.764Z,24.70
2022-08-17T12:22:26.612Z,25.00
2022-08-17T12:29:35.848Z,25.60
2022-08-17T12:36:41.223Z,25.90
2022-08-17T12:43:41.370Z,25.90
2022-08-17T12:50:44.965Z,25.90
2022-08-17T12:57:49.288Z,26.00
2022-08-17T13:04:50.308Z,26.50
2022-08-17T13:11:55.231Z,26.90
2022-08-17T13:19:07.769Z,26.80
2022-08-17T13:26:15.649Z,26.90
2022-08-17T13:33:44.751Z,26.90
2022-08-17T13:40:52.880Z,27.10
2022-08-17T13:48:13.706Z,26.50
2022-08-17T13:55:21.794Z,26.50
2022-08-17T14:02:26.068Z,26.80
2022-08-17T14:09:37.246Z,26.60
2022-08-17T14:16:41.635Z,26.90
2022-08-17T14:23:43.818Z,27.10
2022-08-17T14:30:55.952Z,27.00
2022-08-17T14:37:56.185Z,26.40
2022-08-17T14:44:59.931Z,26.10
2022-08-17T14:52:01.281Z,25.90
2022-08-17T14:59:01.576Z,25.90
2022-08-17T15:06:02.819Z,25.90
2022-08-17T15:13:03.042Z,25.90
2022-08-17T15:20:05.575Z,26.20
2022-08-17T15:27:06.397Z,26.10
2022-08-17T15:34:07.942Z,26.10
2022-08-17T15:41:14.997Z,26.40
2022-08-17T15:48:15.441Z,27.20
2022-08-17T15:55:17.181Z,27.60
2022-08-17T16:03:13.615Z,27.70
2022-08-17T16:09:45.437Z,27.80
2022-08-17T16:16:45.860Z,27.70
2022-08-17T16:23:49.093Z,27.70
2022-08-17T16:30:49.492Z,27.60
2022-08-17T16:37:50.143Z,27.60
2022-08-17T16:44:53.962Z,27.50
2022-08-17T16:52:00.353Z,27.30
2022-08-17T16:59:07.347Z,27.00
2022-08-17T17:06:38.005Z,26.50
2022-08-17T17:13:49.348Z,26.40
2022-08-17T17:20:55.497Z,26.30
2022-08-17T17:28:14.129Z,26.30
2022-08-17T17:35:32.616Z,26.30
2022-08-17T17:42:37.701Z,26.20
2022-08-17T17:49:44.387Z,26.20
2022-08-17T17:57:15.902Z,26.00
2022-08-17T18:04:29.640Z,25.90
2022-08-17T18:11:51.510Z,25.80
2022-08-17T18:18:52.747Z,25.50
2022-08-17T18:25:54.500Z,25.20
2022-08-17T18:33:14.966Z,25.00
2022-08-17T18:40:30.236Z,24.80
2022-08-17T18:47:30.685Z,24.50
2022-08-17T18:54:31.435Z,24.20
2022-08-17T19:02:15.516Z,24.10
2022-08-17T19:09:32.546Z,23.90
2022-08-17T19:16:55.489Z,23.70
2022-08-17T19:24:19.237Z,23.60
2022-08-17T19:31:30.597Z,23.40
2022-08-17T19:38:45.454Z,23.20
2022-08-17T19:46:25.971Z,23.00
2022-08-17T19:54:03.941Z,22.90
2022-08-17T20:00:59.196Z,22.60
2022-08-17T20:08:14.865Z,22.50
2022-08-17T20:15:43.082Z,22.30
2022-08-17T20:23:17.124Z,22.10
2022-08-17T20:30:23.223Z,22.00
2022-08-17T20:37:23.546Z,21.80
2022-08-17T20:44:43.504Z,21.70
2022-08-17T20:52:09.149Z,21.50
2022-08-17T20:59:25.550Z,21.50
2022-08-17T21:06:26.376Z,21.30
2022-08-17T21:13:56.457Z,21.30
2022-08-17T21:21:12.993Z,21.20
2022-08-17T21:28:34.286Z,21.00
2022-08-17T21:35:50.100Z,20.90
2022-08-17T21:42:55.483Z,20.70
2022-08-17T21:50:13.110Z,20.60
2022-08-17T21:57:23.226Z,20.50
2022-08-17T22:04:29.325Z,20.40
2022-08-17T22:11:31.481Z,20.30
2022-08-17T22:18:32.698Z,20.30
2022-08-17T22:25:40.869Z,20.00
2022-08-17T22:32:45.109Z,19.80
2022-08-17T22:39:45.910Z,19.70
2022-08-17T22:46:52.261Z,19.60
2022-08-17T22:54:20.623Z,19.50
2022-08-17T23:01:31.613Z,19.40
2022-08-17T23:08:35.635Z,19.30
2022-08-17T23:15:37.019Z,19.30
2022-08-17T23:22:51.352Z,19.30
2022-08-17T23:29:55.015Z,19.30
2022-08-17T23:36:56.069Z,19.20
2022-08-17T23:43:57.195Z,19.10
2022-08-17T23:50:57.705Z,19.10
2022-08-17T23:58:05.490Z,19.00
